Time;durP1;ratioP1;P1;durP2;ratioP2;P2;SDS_P1;SDS_P2;PMS_P1;PMS_P2;Temp;Humidity;BMP_temperature;BMP_pressure;BME280_temperature;BME280_humidity;BME280_pressure;Samples;Min_cycle;Max_cycle;Signal;HPM_P1;HPM_P2
2022/06/07 00:00:48;;;;;;;15.60;8.15;;;13.70;99.90;;;;;;4997626;28;20430;-72
2022/06/07 00:03:14;;;;;;;17.35;8.30;;;13.70;99.90;;;;;;5014627;28;20129;-72
2022/06/07 00:05:43;;;;;;;13.63;7.70;;;13.50;99.90;;;;;;5014929;28;20556;-73
2022/06/07 00:08:10;;;;;;;18.48;8.20;;;13.40;99.90;;;;;;5014866;28;20046;-74
2022/06/07 00:10:36;;;;;;;18.13;8.35;;;13.40;99.90;;;;;;5014774;28;20504;-72
2022/06/07 00:13:02;;;;;;;17.23;9.02;;;13.40;99.90;;;;;;5014717;28;20096;-73
2022/06/07 00:15:27;;;;;;;16.30;7.88;;;13.40;99.90;;;;;;4997355;28;20085;-73
2022/06/07 00:17:53;;;;;;;17.45;7.78;;;13.50;99.90;;;;;;5014947;28;20049;-73
2022/06/07 00:20:20;;;;;;;18.42;7.97;;;13.40;99.90;;;;;;4997409;28;20049;-73
2022/06/07 00:22:45;;;;;;;19.15;8.63;;;13.40;99.90;;;;;;4997217;28;20498;-73
2022/06/07 00:25:14;;;;;;;21.63;8.80;;;13.40;99.90;;;;;;5014485;28;20130;-73
2022/06/07 00:27:40;;;;;;;16.17;8.57;;;13.40;99.90;;;;;;4997236;28;20053;-72
2022/06/07 00:30:07;;;;;;;13.65;8.27;;;13.30;99.90;;;;;;5014606;28;20203;-72
2022/06/07 00:32:33;;;;;;;18.55;9.63;;;13.30;99.90;;;;;;5014407;28;20053;-72
2022/06/07 00:34:59;;;;;;;17.27;8.95;;;13.50;99.90;;;;;;5013870;28;20489;-72
2022/06/07 00:37:25;;;;;;;18.90;9.75;;;13.40;99.90;;;;;;5014286;28;20148;-74
2022/06/07 00:39:50;;;;;;;12.20;8.82;;;13.40;99.90;;;;;;5014320;28;20509;-72
2022/06/07 00:42:16;;;;;;;14.45;8.23;;;13.40;99.90;;;;;;4996697;28;20096;-73
2022/06/07 00:44:44;;;;;;;20.50;9.50;;;13.40;99.90;;;;;;5014185;28;20045;-73
2022/06/07 00:47:15;;;;;;;18.52;8.70;;;13.50;99.90;;;;;;5014227;28;20054;-72
2022/06/07 00:49:46;;;;;;;19.92;9.77;;;13.50;99.90;;;;;;5014203;28;20049;-72
2022/06/07 00:52:12;;;;;;;21.17;9.15;;;13.50;99.90;;;;;;5014135;28;20038;-73
2022/06/07 00:54:38;;;;;;;19.15;9.35;;;13.40;99.90;;;;;;5014089;28;20057;-73
2022/06/07 00:57:05;;;;;;;14.65;8.80;;;13.40;99.90;;;;;;4996769;28;20388;-72
2022/06/07 00:59:32;;;;;;;15.25;9.38;;;13.40;99.90;;;;;;5013664;28;20402;-72
2022/06/07 01:01:58;;;;;;;23.92;10.77;;;13.50;99.90;;;;;;5013873;28;20038;-73
2022/06/07 01:04:24;;;;;;;20.70;9.82;;;13.50;99.90;;;;;;4992798;28;20054;-72
2022/06/07 01:12:19;;;;;;;19.42;9.70;;;13.40;99.90;;;;;;4993543;28;20407;-73
2022/06/07 01:14:45;;;;;;;22.33;8.93;;;13.40;99.90;;;;;;4994244;28;20042;-73
2022/06/07 01:17:11;;;;;;;18.42;9.35;;;13.40;99.90;;;;;;4992873;28;20050;-73
2022/06/07 01:19:37;;;;;;;15.80;9.10;;;13.40;99.90;;;;;;4993384;28;20062;-73
2022/06/07 01:22:03;;;;;;;19.40;8.80;;;13.40;99.90;;;;;;4992944;28;20046;-72
2022/06/07 01:24:29;;;;;;;17.15;8.93;;;13.30;99.90;;;;;;4993184;28;20386;-73
2022/06/07 01:26:54;;;;;;;17.55;9.13;;;13.40;99.90;;;;;;4994397;28;20042;-72
2022/06/07 01:29:21;;;;;;;21.17;9.30;;;13.40;99.90;;;;;;4994208;28;20046;-72
2022/06/07 01:31:47;;;;;;;19.58;9.80;;;13.50;99.90;;;;;;5009498;28;20446;-73
2022/06/07 01:34:13;;;;;;;23.35;10.88;;;13.50;99.90;;;;;;4993823;28;20052;-73
2022/06/07 01:36:39;;;;;;;19.95;10.30;;;13.40;99.90;;;;;;4994042;28;20128;-73
2022/06/07 01:41:55;;;;;;;19.67;9.88;;;13.40;99.90;;;;;;4993917;28;20096;-72
2022/06/07 01:44:21;;;;;;;17.13;10.30;;;13.40;99.90;;;;;;4993058;28;20483;-72
2022/06/07 01:46:47;;;;;;;17.83;11.02;;;13.50;99.90;;;;;;4993909;28;20053;-72
2022/06/07 01:49:12;;;;;;;21.15;11.07;;;13.60;99.90;;;;;;4992939;28;20121;-72
2022/06/07 01:51:38;;;;;;;19.85;10.95;;;13.70;99.90;;;;;;4993931;28;20046;-72
2022/06/07 01:54:04;;;;;;;21.90;9.73;;;13.60;99.90;;;;;;4976688;28;20138;-73
2022/06/07 01:56:30;;;;;;;20.75;10.40;;;13.70;99.90;;;;;;4993883;28;20054;-72
2022/06/07 01:58:57;;;;;;;17.38;9.32;;;13.80;99.90;;;;;;4976597;28;20050;-73
2022/06/07 02:01:23;;;;;;;20.67;10.07;;;13.70;99.90;;;;;;4992677;28;20495;-73
2022/06/07 02:03:49;;;;;;;18.65;9.88;;;13.70;99.90;;;;;;4992504;28;20057;-73
2022/06/07 02:06:15;;;;;;;20.40;11.00;;;13.70;99.90;;;;;;4992155;28;20442;-72
2022/06/07 02:08:41;;;;;;;19.00;10.55;;;13.70;99.90;;;;;;4992623;28;20046;-72
2022/06/07 02:11:11;;;;;;;19.50;10.07;;;13.60;99.90;;;;;;4993729;28;20104;-73
2022/06/07 02:13:37;;;;;;;19.58;10.50;;;13.60;99.90;;;;;;4993686;28;20042;-73
2022/06/07 02:16:04;;;;;;;17.35;9.95;;;13.70;99.90;;;;;;4993647;28;20046;-73
2022/06/07 02:18:30;;;;;;;18.08;9.98;;;13.60;99.90;;;;;;4993394;28;20085;-73
2022/06/07 02:20:57;;;;;;;19.27;11.02;;;13.60;99.90;;;;;;4995915;28;20090;-73
2022/06/07 02:23:24;;;;;;;19.33;9.98;;;13.60;99.90;;;;;;4997444;28;20046;-72
2022/06/07 02:25:53;;;;;;;24.48;10.75;;;13.70;99.90;;;;;;4997118;28;20113;-73
2022/06/07 02:28:22;;;;;;;28.60;11.05;;;13.70;99.90;;;;;;4996888;28;20495;-73
2022/06/07 02:30:48;;;;;;;22.90;11.13;;;13.70;99.90;;;;;;4997239;28;20399;-72
2022/06/07 02:33:14;;;;;;;16.67;10.20;;;13.70;99.90;;;;;;4996636;28;20038;-73
2022/06/07 02:35:42;;;;;;;23.17;10.52;;;13.80;99.90;;;;;;4996964;28;20054;-73
2022/06/07 02:38:08;;;;;;;17.40;9.90;;;13.80;99.90;;;;;;4995987;28;20054;-73
2022/06/07 02:40:35;;;;;;;21.00;9.80;;;13.90;99.90;;;;;;4996821;28;20050;-72
2022/06/07 02:43:03;;;;;;;22.60;10.70;;;13.80;99.90;;;;;;4996824;28;20050;-72
2022/06/07 02:45:29;;;;;;;17.98;10.13;;;13.70;99.90;;;;;;4995900;28;20479;-72
2022/06/07 02:47:55;;;;;;;22.23;10.18;;;13.70;99.90;;;;;;4995886;28;20109;-72
2022/06/07 02:50:21;;;;;;;22.13;9.07;;;13.60;99.90;;;;;;4996771;28;20046;-72
2022/06/07 02:52:47;;;;;;;17.73;9.65;;;13.60;99.90;;;;;;4996648;28;20046;-72
2022/06/07 02:55:14;;;;;;;18.05;9.45;;;13.70;99.90;;;;;;4995651;28;20129;-72
2022/06/07 02:57:40;;;;;;;16.33;9.88;;;13.70;99.90;;;;;;4995368;28;20046;-72
2022/06/07 03:00:09;;;;;;;18.67;10.45;;;13.80;99.90;;;;;;4996973;28;20054;-72
2022/06/07 03:02:35;;;;;;;17.15;10.05;;;13.80;99.90;;;;;;4996467;28;20135;-72
2022/06/07 03:05:01;;;;;;;18.38;9.98;;;13.60;99.90;;;;;;5003163;28;20093;-72
2022/06/07 03:07:27;;;;;;;19.02;10.10;;;13.60;99.90;;;;;;5015978;28;20089;-72
2022/06/07 03:09:53;;;;;;;21.27;10.32;;;13.70;99.90;;;;;;4998591;28;20062;-72
2022/06/07 03:12:18;;;;;;;20.05;11.32;;;13.80;99.90;;;;;;4999106;28;20137;-72
2022/06/07 03:14:44;;;;;;;20.00;10.90;;;13.90;99.90;;;;;;5015815;28;20133;-73
2022/06/07 03:17:10;;;;;;;22.65;11.05;;;14.00;99.90;;;;;;4998428;28;20505;-73
2022/06/07 03:19:36;;;;;;;23.33;11.18;;;14.10;99.90;;;;;;4998226;28;20053;-72
2022/06/07 03:22:01;;;;;;;21.73;10.82;;;14.00;99.90;;;;;;5015671;28;20100;-72
2022/06/07 03:24:27;;;;;;;19.88;11.15;;;14.00;99.90;;;;;;4998329;28;20482;-72
2022/06/07 03:26:54;;;;;;;24.92;10.93;;;13.80;99.90;;;;;;5015849;28;20041;-73
2022/06/07 03:29:19;;;;;;;22.90;11.95;;;13.90;99.90;;;;;;4982412;28;20060;-72
2022/06/07 03:31:45;;;;;;;21.58;12.23;;;14.00;99.90;;;;;;4998187;28;20046;-72
2022/06/07 03:34:12;;;;;;;24.33;11.65;;;14.00;99.90;;;;;;5015472;28;20101;-73
2022/06/07 03:36:38;;;;;;;21.70;11.00;;;14.00;99.90;;;;;;4998185;28;20046;-72
2022/06/07 03:39:07;;;;;;;20.42;11.43;;;14.00;99.90;;;;;;4997771;28;20442;-72
2022/06/07 03:41:33;;;;;;;24.00;12.38;;;14.10;99.90;;;;;;4997839;28;20053;-73
2022/06/07 03:43:59;;;;;;;20.80;11.18;;;14.10;99.90;;;;;;5015546;28;20049;-72
2022/06/07 03:46:28;;;;;;;24.77;11.68;;;14.00;99.90;;;;;;5015265;28;20092;-72
2022/06/07 03:48:55;;;;;;;15.98;10.52;;;14.10;99.90;;;;;;5015204;28;20045;-72
2022/06/07 03:51:23;;;;;;;25.88;12.20;;;14.10;99.90;;;;;;5015222;28;20116;-73
2022/06/07 03:53:49;;;;;;;21.00;12.23;;;14.00;99.90;;;;;;5015031;28;20072;-72
2022/06/07 03:56:15;;;;;;;22.52;12.55;;;14.00;99.90;;;;;;5015131;28;20056;-72
2022/06/07 03:58:41;;;;;;;22.90;12.73;;;14.10;99.90;;;;;;4995906;28;20430;-74
2022/06/07 04:01:09;;;;;;;24.52;12.50;;;14.00;99.90;;;;;;5013952;28;20041;-73
2022/06/07 04:03:35;;;;;;;23.92;13.02;;;14.00;99.90;;;;;;4997277;28;20536;-72
2022/06/07 04:06:02;;;;;;;21.88;12.88;;;14.20;99.90;;;;;;4997120;28;20058;-73
2022/06/07 04:08:30;;;;;;;22.92;13.18;;;14.30;99.90;;;;;;5014546;28;20469;-73
2022/06/07 04:11:01;;;;;;;25.17;13.02;;;14.10;99.90;;;;;;4997371;28;20046;-73
2022/06/07 04:13:29;;;;;;;23.98;14.32;;;14.20;99.90;;;;;;5015139;28;20096;-72
2022/06/07 04:15:55;;;;;;;23.60;14.65;;;14.30;99.90;;;;;;5014707;28;20045;-73
2022/06/07 04:18:20;;;;;;;28.45;14.82;;;14.20;99.90;;;;;;4996985;28;20108;-73
2022/06/07 04:20:46;;;;;;;24.55;13.68;;;14.00;99.90;;;;;;5014524;28;20038;-73
2022/06/07 04:23:19;;;;;;;23.15;13.05;;;13.80;99.90;;;;;;4996964;28;20479;-72
2022/06/07 04:25:45;;;;;;;24.05;11.80;;;13.80;99.90;;;;;;5014755;28;20042;-72
2022/06/07 04:28:12;;;;;;;19.80;10.88;;;13.60;99.90;;;;;;5014627;28;20056;-73
2022/06/07 04:30:41;;;;;;;19.55;9.65;;;13.50;99.90;;;;;;4997364;28;20045;-73
2022/06/07 04:33:07;;;;;;;17.52;10.63;;;13.40;99.90;;;;;;5014186;28;20050;-83
2022/06/07 04:35:33;;;;;;;16.92;9.80;;;13.50;99.90;;;;;;5014647;28;20053;-73
2022/06/07 04:37:58;;;;;;;18.13;9.90;;;13.60;99.90;;;;;;5014411;28;20046;-73
2022/06/07 04:40:24;;;;;;;17.15;9.18;;;13.60;99.90;;;;;;4996891;28;20049;-73
2022/06/07 04:42:50;;;;;;;14.38;8.13;;;13.70;99.90;;;;;;5013724;28;20052;-72
2022/06/07 04:45:16;;;;;;;17.20;7.93;;;13.60;99.90;;;;;;5014187;28;20057;-72
2022/06/07 04:47:43;;;;;;;17.08;6.53;;;13.30;99.90;;;;;;5014155;28;20053;-72
2022/06/07 04:50:11;;;;;;;14.90;7.05;;;13.10;99.90;;;;;;5014151;28;20426;-72
2022/06/07 04:52:37;;;;;;;16.08;6.53;;;13.00;99.90;;;;;;4996829;28;20372;-72
2022/06/07 04:55:03;;;;;;;13.18;6.30;;;13.00;99.90;;;;;;5014047;28;20095;-72
2022/06/07 04:57:30;;;;;;;21.35;7.85;;;13.00;99.90;;;;;;4996256;28;20053;-72
2022/06/07 04:59:55;;;;;;;15.27;7.18;;;13.10;99.90;;;;;;5014027;28;20059;-73
2022/06/07 05:02:21;;;;;;;17.27;7.28;;;13.10;99.90;;;;;;5013891;28;20136;-73
2022/06/07 05:04:47;;;;;;;22.00;8.10;;;13.20;99.90;;;;;;5013422;28;20524;-72
2022/06/07 05:07:14;;;;;;;13.43;8.13;;;13.10;99.90;;;;;;5013878;28;20046;-72
2022/06/07 05:09:40;;;;;;;16.40;8.07;;;13.10;99.90;;;;;;5013906;28;20085;-73
2022/06/07 05:12:08;;;;;;;16.05;8.25;;;13.30;99.90;;;;;;5013781;28;20494;-72
2022/06/07 05:14:34;;;;;;;16.42;9.02;;;13.30;99.90;;;;;;5013800;28;20061;-73
2022/06/07 05:17:00;;;;;;;19.17;9.65;;;13.10;99.90;;;;;;5013815;28;20092;-73
2022/06/07 05:19:27;;;;;;;18.13;8.93;;;13.20;99.90;;;;;;4996423;28;20089;-73
2022/06/07 05:21:53;;;;;;;19.80;9.27;;;13.30;99.90;;;;;;5013781;28;20064;-72
2022/06/07 05:24:19;;;;;;;16.40;8.63;;;13.30;99.90;;;;;;5013745;28;20049;-72
2022/06/07 05:26:49;;;;;;;18.88;9.18;;;13.30;99.90;;;;;;4996533;28;20046;-72
2022/06/07 05:29:27;;;;;;;15.00;8.90;;;13.40;99.90;;;;;;5013741;28;20414;-73
2022/06/07 05:31:53;;;;;;;17.88;9.00;;;13.50;99.90;;;;;;5013945;28;20041;-72
2022/06/07 05:34:19;;;;;;;14.80;8.85;;;13.50;99.90;;;;;;5013729;28;20391;-73
2022/06/07 05:36:44;;;;;;;22.08;9.40;;;13.60;99.90;;;;;;5013604;28;20046;-73
2022/06/07 05:39:23;;;;;;;18.42;9.13;;;13.80;99.90;;;;;;5013641;28;20049;-73
2022/06/07 05:41:50;;;;;;;22.33;8.73;;;13.90;99.90;;;;;;4995973;28;20375;-72
2022/06/07 05:44:16;;;;;;;17.95;9.63;;;13.90;99.90;;;;;;5013505;28;20058;-73
2022/06/07 05:46:42;;;;;;;17.35;8.73;;;13.90;99.90;;;;;;4996133;28;20057;-72
2022/06/07 05:49:09;;;;;;;21.35;8.80;;;13.90;99.90;;;;;;5013630;28;20069;-73
2022/06/07 05:51:37;;;;;;;18.95;9.25;;;13.90;99.90;;;;;;4996346;28;20066;-73
2022/06/07 05:54:03;;;;;;;16.80;8.20;;;14.00;99.90;;;;;;5016819;28;20111;-72
2022/06/07 05:56:29;;;;;;;22.60;8.85;;;14.00;99.90;;;;;;4999867;28;20475;-73
2022/06/07 05:58:55;;;;;;;14.00;7.07;;;14.00;99.90;;;;;;5017235;28;20128;-73
2022/06/07 06:01:21;;;;;;;19.98;6.90;;;13.80;99.90;;;;;;5017142;28;20041;-73
2022/06/07 06:03:46;;;;;;;15.70;6.00;;;13.90;99.90;;;;;;4999742;28;20042;-72
2022/06/07 06:06:13;;;;;;;11.95;5.57;;;13.90;99.90;;;;;;5017351;28;20066;-75
2022/06/07 06:11:26;;;;;;;14.15;5.28;;;13.90;99.90;;;;;;5017074;28;20050;-73
2022/06/07 06:13:52;;;;;;;17.95;5.10;;;13.80;99.90;;;;;;4999672;28;20060;-73
2022/06/07 06:16:19;;;;;;;11.73;4.95;;;13.90;99.90;;;;;;5016982;28;20054;-73
2022/06/07 06:18:54;;;;;;;10.85;4.55;;;13.80;99.90;;;;;;4999743;28;20073;-72
2022/06/07 06:21:22;;;;;;;15.70;5.13;;;13.70;99.90;;;;;;4999593;28;20144;-72
2022/06/07 06:23:48;;;;;;;6.93;3.97;;;13.70;99.90;;;;;;5016730;28;20088;-72
2022/06/07 06:26:16;;;;;;;9.77;4.10;;;13.80;99.90;;;;;;5016928;28;20049;-72
2022/06/07 06:28:42;;;;;;;13.10;4.18;;;13.80;99.90;;;;;;5016666;28;20057;-72
2022/06/07 06:31:10;;;;;;;12.82;4.47;;;13.70;99.90;;;;;;5016687;28;20042;-72
2022/06/07 06:33:41;;;;;;;12.13;4.10;;;13.80;99.90;;;;;;5016475;28;20046;-73
2022/06/07 06:36:09;;;;;;;8.38;3.88;;;13.80;99.90;;;;;;4999390;28;20104;-72
2022/06/07 06:38:35;;;;;;;7.85;4.22;;;13.50;99.90;;;;;;5016789;28;20154;-73
2022/06/07 06:41:26;;;;;;;10.40;4.22;;;13.40;99.90;;;;;;5016412;28;20070;-75
2022/06/07 06:43:53;;;;;;;10.77;4.05;;;13.30;99.90;;;;;;4999484;28;20050;-72
2022/06/07 06:46:26;;;;;;;11.70;4.07;;;13.30;99.90;;;;;;4999271;28;20093;-72
2022/06/07 06:48:52;;;;;;;11.23;4.13;;;13.30;99.90;;;;;;5016372;28;20053;-72
2022/06/07 06:51:21;;;;;;;9.20;3.65;;;13.40;99.90;;;;;;4998924;28;20480;-73
2022/06/07 06:53:48;;;;;;;6.57;3.00;;;13.30;99.90;;;;;;4983321;28;20054;-72
2022/06/07 06:56:18;;;;;;;10.50;3.13;;;13.20;99.90;;;;;;5016171;28;20129;-72
2022/06/07 06:58:44;;;;;;;4.45;1.80;;;13.30;99.90;;;;;;5016237;28;20046;-72
2022/06/07 07:01:12;;;;;;;10.02;1.92;;;13.20;99.90;;;;;;4998632;28;20070;-72
2022/06/07 07:03:40;;;;;;;7.50;1.88;;;13.30;99.90;;;;;;5015546;28;20049;-72
2022/06/07 07:06:07;;;;;;;4.97;1.98;;;13.40;99.90;;;;;;5015986;28;20062;-72
2022/06/07 07:08:35;;;;;;;8.05;1.63;;;13.40;99.90;;;;;;4998684;28;20508;-72
2022/06/07 07:11:17;;;;;;;5.20;1.60;;;13.40;99.90;;;;;;4998398;28;20056;-72
2022/06/07 07:13:43;;;;;;;8.43;1.70;;;13.40;99.90;;;;;;5015896;28;20099;-73
2022/06/07 07:16:12;;;;;;;7.38;1.70;;;13.50;99.90;;;;;;4998522;28;20053;-72
2022/06/07 07:18:38;;;;;;;6.03;1.48;;;13.50;99.90;;;;;;5016190;28;20199;-72
2022/06/07 07:21:06;;;;;;;10.60;1.98;;;13.60;99.90;;;;;;5015964;28;20050;-72
2022/06/07 07:23:33;;;;;;;7.10;1.58;;;13.60;99.90;;;;;;5015703;28;20057;-72
2022/06/07 07:26:06;;;;;;;9.55;1.73;;;13.70;99.90;;;;;;5015728;28;20050;-73
2022/06/07 07:28:33;;;;;;;8.10;1.55;;;13.80;99.90;;;;;;4998346;28;20060;-72
2022/06/07 07:31:00;;;;;;;10.10;1.55;;;13.80;99.90;;;;;;5015527;28;20497;-72
2022/06/07 07:33:27;;;;;;;5.05;1.15;;;13.60;99.90;;;;;;5015186;28;20138;-73
2022/06/07 07:35:52;;;;;;;12.18;1.60;;;13.50;99.90;;;;;;4998479;28;20454;-72
2022/06/07 07:38:19;;;;;;;7.70;1.77;;;13.60;99.90;;;;;;5015429;28;20136;-72
2022/06/07 07:40:45;;;;;;;6.13;1.67;;;13.60;99.90;;;;;;5015329;28;20116;-73
2022/06/07 07:43:10;;;;;;;8.40;1.70;;;13.60;99.90;;;;;;4998077;28;20475;-72
2022/06/07 07:45:36;;;;;;;9.50;1.73;;;13.90;99.90;;;;;;4998006;28;20130;-71
2022/06/07 07:48:03;;;;;;;12.45;1.98;;;13.90;99.90;;;;;;5015253;28;20046;-72
2022/06/07 07:50:29;;;;;;;8.90;1.92;;;13.70;99.90;;;;;;5015524;28;20121;-72
2022/06/07 07:52:57;;;;;;;10.60;2.67;;;13.80;99.90;;;;;;5015122;28;20438;-72
2022/06/07 07:55:24;;;;;;;9.43;2.00;;;13.90;99.90;;;;;;5015140;28;20089;-69
2022/06/07 07:57:49;;;;;;;14.23;2.60;;;14.00;99.90;;;;;;5015016;28;20050;-71
2022/06/07 08:00:15;;;;;;;8.07;1.88;;;14.10;99.90;;;;;;5015186;28;20407;-72
2022/06/07 08:02:42;;;;;;;7.47;1.70;;;14.30;99.90;;;;;;5014906;28;20046;-72
2022/06/07 08:05:09;;;;;;;8.68;1.40;;;14.20;99.90;;;;;;5017109;28;20053;-71
2022/06/07 08:07:35;;;;;;;12.50;1.80;;;14.30;99.90;;;;;;5018471;28;20045;-72
2022/06/07 08:10:02;;;;;;;11.25;1.63;;;14.00;99.90;;;;;;5014802;28;20049;-72
2022/06/07 08:12:29;;;;;;;8.25;1.60;;;14.20;99.90;;;;;;5014791;28;20099;-70
2022/06/07 08:14:54;;;;;;;13.25;1.80;;;14.30;99.90;;;;;;5014762;28;20467;-70
2022/06/07 08:17:20;;;;;;;9.45;1.55;;;14.40;99.90;;;;;;5013724;28;20129;-70
2022/06/07 08:19:46;;;;;;;8.95;1.80;;;14.60;99.90;;;;;;5014667;28;20045;-71
2022/06/07 08:22:12;;;;;;;5.97;1.20;;;14.70;99.90;;;;;;5014500;28;20410;-71
2022/06/07 08:24:38;;;;;;;7.05;1.35;;;14.80;99.90;;;;;;5014598;28;20093;-71
2022/06/07 08:27:04;;;;;;;13.50;1.73;;;14.70;99.90;;;;;;5013507;28;20081;-71
2022/06/07 08:29:29;;;;;;;7.72;1.60;;;14.50;99.90;;;;;;5014529;28;20050;-71
2022/06/07 08:31:55;;;;;;;7.55;1.90;;;14.70;99.90;;;;;;4997186;28;20077;-71
2022/06/07 08:39:50;;;;;;;9.70;2.33;;;14.80;99.90;;;;;;5014366;28;20149;-71
2022/06/07 08:42:29;;;;;;;12.18;2.10;;;14.70;99.90;;;;;;4996810;28;20128;-70
2022/06/07 08:44:59;;;;;;;9.55;2.00;;;14.70;99.90;;;;;;5014299;28;20065;-70
2022/06/07 08:47:49;;;;;;;9.43;2.00;;;14.50;99.90;;;;;;5014194;28;20052;-70
2022/06/07 08:50:33;;;;;;;8.00;1.73;;;14.50;99.90;;;;;;4980788;28;20061;-70
2022/06/07 08:53:26;;;;;;;7.70;1.67;;;14.50;99.90;;;;;;5014171;28;20049;-74
2022/06/07 08:55:56;;;;;;;8.95;1.90;;;14.80;99.90;;;;;;5005634;28;20066;-74
2022/06/07 08:58:37;;;;;;;18.92;1.90;;;14.90;99.90;;;;;;5014063;28;20049;-71
2022/06/07 09:01:43;;;;;;;11.93;2.10;;;14.80;99.90;;;;;;4996606;28;20042;-70
2022/06/07 09:04:11;;;;;;;11.00;1.98;;;14.80;99.90;;;;;;5013554;28;20473;-70
2022/06/07 09:06:44;;;;;;;9.88;1.83;;;14.90;99.90;;;;;;4996210;28;20061;-71
2022/06/07 09:09:11;;;;;;;8.30;2.20;;;15.10;99.90;;;;;;4996299;28;20454;-71
2022/06/07 09:12:10;;;;;;;7.05;2.30;;;15.20;99.90;;;;;;5013878;28;20107;-70
2022/06/07 09:14:44;;;;;;;12.27;2.28;;;15.30;99.90;;;;;;4996398;28;20451;-71
2022/06/07 09:17:33;;;;;;;8.55;1.85;;;15.30;99.90;;;;;;5014162;28;20398;-71
2022/06/07 09:20:00;;;;;;;12.73;2.38;;;15.50;99.90;;;;;;5013486;28;20112;-70
2022/06/07 09:22:37;;;;;;;9.63;1.88;;;15.70;99.90;;;;;;5013705;28;20046;-71
2022/06/07 09:25:12;;;;;;;8.15;1.65;;;15.70;99.90;;;;;;5013820;28;20056;-71
2022/06/07 09:27:38;;;;;;;8.07;1.10;;;15.60;99.90;;;;;;5015023;28;20445;-71
2022/06/07 09:30:16;;;;;;;6.85;1.35;;;15.60;99.90;;;;;;5000697;28;20132;-71
2022/06/07 09:32:42;;;;;;;6.75;1.23;;;15.50;99.90;;;;;;5000043;28;20516;-71
2022/06/07 09:35:38;;;;;;;9.30;1.67;;;15.20;99.90;;;;;;5017472;28;20482;-71
2022/06/07 09:38:11;;;;;;;8.77;1.20;;;15.40;99.90;;;;;;5006831;28;20053;-71
2022/06/07 09:40:42;;;;;;;10.23;1.85;;;15.50;99.90;;;;;;5017313;28;20530;-71
2022/06/07 09:43:11;;;;;;;6.18;1.23;;;15.80;99.90;;;;;;5000293;28;20046;-70
2022/06/07 09:46:07;;;;;;;9.73;1.45;;;15.80;99.90;;;;;;5017606;28;20052;-71
2022/06/07 09:48:46;;;;;;;8.75;1.52;;;15.70;99.90;;;;;;5010194;28;20053;-71
2022/06/07 09:51:19;;;;;;;9.35;1.75;;;15.80;99.90;;;;;;5017596;28;20405;-71
2022/06/07 09:53:59;;;;;;;8.88;1.90;;;15.80;99.90;;;;;;5017514;28;20058;-71
2022/06/07 09:56:31;;;;;;;11.77;2.40;;;15.60;99.90;;;;;;5000052;28;20494;-74
2022/06/07 09:59:21;;;;;;;11.98;1.85;;;15.50;99.90;;;;;;5017241;28;20096;-74
2022/06/07 10:01:54;;;;;;;11.85;1.50;;;15.30;99.90;;;;;;5017076;28;20522;-73
2022/06/07 10:04:32;;;;;;;7.70;1.60;;;15.30;99.90;;;;;;5017028;28;20065;-73
2022/06/07 10:07:03;;;;;;;13.35;1.60;;;15.10;99.90;;;;;;5016377;28;20116;-74
2022/06/07 10:09:29;;;;;;;14.40;1.55;;;15.00;99.90;;;;;;5017391;28;20053;-73
2022/06/07 10:12:02;;;;;;;13.65;1.77;;;15.00;99.90;;;;;;5017087;28;20058;-77
2022/06/07 10:15:02;;;;;;;8.30;1.30;;;14.70;99.90;;;;;;5016900;28;20081;-74
2022/06/07 10:17:42;;;;;;;14.93;1.88;;;14.60;99.90;;;;;;5016775;28;20137;-74
2022/06/07 10:20:25;;;;;;;16.40;1.50;;;14.60;99.90;;;;;;5016674;28;20050;-74
2022/06/07 10:23:11;;;;;;;10.70;1.33;;;14.60;99.90;;;;;;5016867;28;20053;-73
2022/06/07 10:25:49;;;;;;;15.00;2.20;;;14.60;99.90;;;;;;5016747;28;20038;-75
2022/06/07 10:28:21;;;;;;;8.23;1.25;;;14.70;99.90;;;;;;5016204;28;20058;-79
2022/06/07 10:31:06;;;;;;;7.75;1.58;;;14.80;99.90;;;;;;4997992;28;20053;-73
2022/06/07 10:33:38;;;;;;;10.95;1.58;;;15.10;99.90;;;;;;5015716;28;20482;-81
2022/06/07 10:36:48;;;;;;;11.25;1.77;;;15.00;99.90;;;;;;5015166;28;20049;-81
2022/06/07 10:39:38;;;;;;;8.50;1.08;;;15.00;99.90;;;;;;4918723;29;20102;-79
2022/06/07 10:42:13;;;;;;;16.90;1.85;;;14.90;99.90;;;;;;4920976;29;20292;-79
2022/06/07 10:44:47;;;;;;;7.68;1.38;;;15.00;99.90;;;;;;4983529;28;20058;-73
2022/06/07 10:47:12;;;;;;;7.13;1.50;;;15.10;99.90;;;;;;4999321;28;20038;-80
2022/06/07 10:49:56;;;;;;;19.30;2.92;;;15.40;99.90;;;;;;5016396;28;20448;-78
2022/06/07 10:52:44;;;;;;;7.88;1.42;;;15.50;99.90;;;;;;5000776;28;20050;-74
2022/06/07 10:55:28;;;;;;;20.65;4.28;;;15.70;99.90;;;;;;5017120;28;20386;-74
2022/06/07 10:58:08;;;;;;;17.20;2.90;;;16.10;99.90;;;;;;5016323;28;20049;-83
2022/06/07 11:00:51;;;;;;;6.53;1.27;;;16.30;99.90;;;;;;5016001;28;20501;-75
2022/06/07 11:04:04;;;;;;;10.77;1.20;;;16.20;99.90;;;;;;5016262;28;20042;-75
2022/06/07 11:09:37;;;;;;;5.75;1.23;;;16.10;99.90;;;;;;5016094;28;20111;-74
2022/06/07 11:12:17;;;;;;;8.13;1.30;;;15.80;99.90;;;;;;5015953;28;20525;-74
2022/06/07 11:15:03;;;;;;;11.00;1.33;;;15.80;99.90;;;;;;5016038;28;20053;-73
2022/06/07 11:17:47;;;;;;;;;;;15.90;99.90;;;;;;5016494;28;20050;-74
2022/06/07 11:20:24;;;;;;;9.85;1.55;;;16.00;99.90;;;;;;5015850;28;19917;-74
2022/06/07 11:22:52;;;;;;;;;;;15.70;99.90;;;;;;5016764;28;20042;-73
2022/06/07 11:25:36;;;;;;;8.93;1.52;;;15.50;99.90;;;;;;4999406;28;19988;-73
2022/06/07 11:28:13;;;;;;;10.73;1.85;;;15.40;99.90;;;;;;5016626;28;20462;-73
2022/06/07 11:30:41;;;;;;;8.40;1.52;;;15.30;99.90;;;;;;5015725;28;20475;-73
2022/06/07 11:33:38;;;;;;;12.50;2.28;;;15.30;99.90;;;;;;5015605;28;20038;-79
2022/06/07 11:36:25;;;;;;;;;;;15.40;99.90;;;;;;5016285;28;20042;-75
2022/06/07 11:38:54;;;;;;;10.25;1.40;;;15.50;99.90;;;;;;5015576;28;19964;-73
2022/06/07 11:41:37;;;;;;;8.02;1.20;;;15.80;99.90;;;;;;5015789;28;20045;-71
2022/06/07 11:44:11;;;;;;;10.50;1.35;;;16.20;99.90;;;;;;5015512;28;20041;-74
2022/06/07 11:46:49;;;;;;;10.70;1.45;;;16.20;99.90;;;;;;4998179;28;20072;-75
2022/06/07 11:49:21;;;;;;;7.55;1.77;;;16.20;99.90;;;;;;5015388;28;20099;-72
2022/06/07 11:52:06;;;;;;;8.63;1.27;;;16.20;99.90;;;;;;4996846;28;20057;-72
2022/06/07 11:54:44;;;;;;;10.27;1.10;;;16.10;99.90;;;;;;5013662;28;20056;-73
2022/06/07 11:57:31;;;;;;;6.88;1.08;;;16.10;99.90;;;;;;5013785;28;20046;-75
2022/06/07 12:00:16;;;;;;;10.25;1.15;;;16.20;99.90;;;;;;5014184;28;20092;-74
2022/06/07 12:03:09;;;;;;;8.35;1.17;;;16.20;99.90;;;;;;5014137;28;20046;-75
2022/06/07 12:06:10;;;;;;;7.60;1.13;;;16.30;99.90;;;;;;4980826;28;20054;-73
2022/06/07 12:08:52;;;;;;;7.15;1.38;;;16.40;99.90;;;;;;5014009;28;20058;-73
2022/06/07 12:11:24;;;;;;;7.18;1.65;;;16.50;99.90;;;;;;5014954;28;20093;-73
2022/06/07 12:14:13;;;;;;;10.65;1.67;;;16.70;99.90;;;;;;5014865;28;20052;-73
2022/06/07 12:17:00;;;;;;;9.25;1.38;;;16.70;99.90;;;;;;4973630;28;20402;-73
2022/06/07 12:19:33;;;;;;;8.27;1.75;;;16.50;99.90;;;;;;5015000;28;20080;-73
2022/06/07 12:22:12;;;;;;;11.60;1.40;;;16.70;99.90;;;;;;5014729;28;20042;-73
2022/06/07 12:24:42;;;;;;;10.85;1.80;;;16.90;99.90;;;;;;5014647;28;20431;-73
2022/06/07 12:27:26;;;;;;;7.30;1.45;;;16.70;99.90;;;;;;5014612;28;20128;-73
2022/06/07 12:29:54;;;;;;;4.22;0.88;;;16.80;99.90;;;;;;5014488;28;20560;-85
2022/06/07 12:32:49;;;;;;;11.65;1.40;;;16.80;99.90;;;;;;5014000;28;20461;-72
2022/06/07 12:35:28;;;;;;;7.28;1.30;;;16.90;99.90;;;;;;4994289;28;20065;-70
2022/06/07 12:37:57;;;;;;;8.80;1.80;;;16.90;99.90;;;;;;5014732;28;20137;-74
2022/06/07 12:40:23;;;;;;;11.15;1.50;;;16.90;99.90;;;;;;4997119;28;20050;-73
2022/06/07 12:42:49;;;;;;;9.90;1.40;;;16.60;99.90;;;;;;5014414;28;20046;-74
2022/06/07 12:45:32;;;;;;;9.32;1.52;;;16.30;99.90;;;;;;4996979;28;20085;-81
2022/06/07 12:48:12;;;;;;;13.23;1.40;;;16.30;99.90;;;;;;4997172;28;20052;-84
2022/06/07 12:50:41;;;;;;;7.07;1.17;;;16.00;99.90;;;;;;5014243;28;20041;-76
2022/06/07 12:53:17;;;;;;;9.85;1.65;;;16.20;99.90;;;;;;5014529;28;20088;-82
2022/06/07 12:55:42;;;;;;;11.60;2.70;;;16.20;99.90;;;;;;5014175;28;20046;-73
2022/06/07 12:58:19;;;;;;;10.70;1.40;;;16.00;99.90;;;;;;4996708;28;20045;-83
2022/06/07 13:00:47;;;;;;;5.65;1.52;;;15.90;99.90;;;;;;4996630;28;20406;-85
2022/06/07 13:03:27;;;;;;;5.47;1.05;;;15.90;99.90;;;;;;4980065;28;20479;-85
2022/06/07 13:06:06;;;;;;;9.18;1.80;;;16.20;99.90;;;;;;4995983;28;20049;-84
2022/06/07 13:08:35;;;;;;;7.70;1.40;;;16.60;99.90;;;;;;4996645;28;20116;-85
2022/06/07 13:11:04;;;;;;;6.72;1.48;;;16.60;99.90;;;;;;4996628;28;20667;-84
2022/06/07 13:13:34;;;;;;;5.65;1.38;;;16.40;99.90;;;;;;4996533;28;20053;-73
2022/06/07 13:16:21;;;;;;;4.72;0.98;;;16.20;99.90;;;;;;5013640;28;20479;-75